createdAt,value
2023-08-16T00:01:48.177Z,4.15
2023-08-16T00:06:49.925Z,4.35
2023-08-16T00:11:51.711Z,4.22
2023-08-16T00:16:53.595Z,3.80
2023-08-16T00:21:55.335Z,4.10
2023-08-16T00:26:57.041Z,3.92
2023-08-16T00:31:59.045Z,4.40
2023-08-16T00:37:01.076Z,4.80
2023-08-16T00:42:02.799Z,4.38
2023-08-16T00:47:05.459Z,4.15
2023-08-16T00:52:08.982Z,4.30
2023-08-16T00:57:10.773Z,3.95
2023-08-16T01:02:14.584Z,4.38
2023-08-16T01:07:16.358Z,3.63
2023-08-16T01:12:28.792Z,4.03
2023-08-16T01:17:31.695Z,4.05
2023-08-16T01:22:52.126Z,4.00
2023-08-16T01:27:55.590Z,4.53
2023-08-16T01:33:09.605Z,4.22
2023-08-16T01:38:14.235Z,4.75
2023-08-16T01:43:17.959Z,5.18
2023-08-16T01:48:22.466Z,5.20
2023-08-16T01:53:24.266Z,5.57
2023-08-16T01:58:26.052Z,5.00
2023-08-16T02:03:27.927Z,4.60
2023-08-16T02:08:29.736Z,5.00
2023-08-16T02:13:31.493Z,5.10
2023-08-16T02:18:33.231Z,4.18
2023-08-16T02:23:35.060Z,4.95
2023-08-16T02:28:36.842Z,5.28
2023-08-16T02:33:38.740Z,5.10
2023-08-16T02:38:40.509Z,5.25
2023-08-16T02:43:42.282Z,4.30
2023-08-16T02:48:44.044Z,5.05
2023-08-16T02:53:45.779Z,4.95
2023-08-16T02:58:47.514Z,5.05
2023-08-16T03:03:49.290Z,5.25
2023-08-16T03:08:51.048Z,5.53
2023-08-16T03:13:53.977Z,5.28
2023-08-16T03:18:55.773Z,5.32
2023-08-16T03:23:57.500Z,6.28
2023-08-16T03:28:59.487Z,5.25
2023-08-16T03:34:01.194Z,5.35
2023-08-16T03:39:06.306Z,5.28
2023-08-16T03:44:08.396Z,5.22
2023-08-16T03:49:10.128Z,5.88
2023-08-16T03:54:11.867Z,6.10
2023-08-16T03:59:13.640Z,6.00
2023-08-16T04:04:15.418Z,6.00
2023-08-16T04:09:17.764Z,6.40
2023-08-16T04:14:19.575Z,5.90
2023-08-16T04:19:21.370Z,5.35
2023-08-16T04:24:23.077Z,4.78
2023-08-16T04:29:25.948Z,5.25
2023-08-16T04:34:27.685Z,5.63
2023-08-16T04:39:29.482Z,4.75
2023-08-16T04:44:31.227Z,5.35
2023-08-16T04:54:35.486Z,4.35
2023-08-16T04:59:37.239Z,4.43
2023-08-16T05:04:39.018Z,4.82
2023-08-16T05:09:40.810Z,4.72
2023-08-16T05:14:42.531Z,6.72
2023-08-16T05:19:44.281Z,7.90
2023-08-16T05:24:46.650Z,8.07
2023-08-16T05:29:48.530Z,6.85
2023-08-16T05:34:53.413Z,6.50
2023-08-16T05:39:55.144Z,6.28
2023-08-16T05:44:56.953Z,6.25
2023-08-16T05:50:00.182Z,8.65
2023-08-16T05:55:01.997Z,8.98
2023-08-16T06:00:04.188Z,8.45
2023-08-16T06:05:06.340Z,7.38
2023-08-16T06:10:08.501Z,8.45
2023-08-16T06:15:12.659Z,7.07
2023-08-16T06:20:14.826Z,6.97
2023-08-16T06:25:16.816Z,7.03
2023-08-16T06:30:18.574Z,7.28
2023-08-16T06:35:20.577Z,5.88
2023-08-16T06:40:22.423Z,6.20
2023-08-16T06:45:25.266Z,6.15
2023-08-16T06:50:27.907Z,5.75
2023-08-16T06:55:29.949Z,5.65
2023-08-16T07:00:32.156Z,5.90
2023-08-16T07:05:34.587Z,5.40
2023-08-16T07:10:36.354Z,5.30
2023-08-16T07:15:38.071Z,5.55
2023-08-16T07:20:40.876Z,5.40
2023-08-16T07:25:42.617Z,4.40
2023-08-16T07:30:44.372Z,5.13
2023-08-16T07:35:46.116Z,5.32
2023-08-16T07:40:48.962Z,5.05
2023-08-16T07:45:54.188Z,4.47
2023-08-16T07:50:55.884Z,6.22
2023-08-16T07:55:57.966Z,21.80
2023-08-16T08:00:59.998Z,5.22
2023-08-16T08:06:02.937Z,4.90
2023-08-16T08:11:08.213Z,5.70
2023-08-16T08:16:10.003Z,4.57
2023-08-16T08:21:12.315Z,4.75
2023-08-16T08:26:14.576Z,4.35
2023-08-16T08:31:16.407Z,5.20
2023-08-16T08:36:18.355Z,4.68
2023-08-16T08:41:25.668Z,4.93
2023-08-16T08:46:33.273Z,4.90
2023-08-16T08:51:37.761Z,4.75
2023-08-16T08:56:41.192Z,4.60
2023-08-16T09:01:45.247Z,4.78
2023-08-16T09:06:47.708Z,4.68
2023-08-16T09:11:49.610Z,4.78
2023-08-16T09:16:51.355Z,4.57
2023-08-16T09:21:53.340Z,4.45
2023-08-16T09:27:00.502Z,4.97
2023-08-16T09:32:05.940Z,4.40
2023-08-16T09:37:08.798Z,5.63
2023-08-16T09:42:12.079Z,4.97
2023-08-16T09:47:19.376Z,4.25
2023-08-16T09:52:23.469Z,3.97
2023-08-16T10:07:38.373Z,4.30
2023-08-16T10:12:42.574Z,3.83
2023-08-16T10:17:45.001Z,4.57
2023-08-16T10:22:49.715Z,5.65
2023-08-16T10:27:54.870Z,4.55
2023-08-16T10:33:10.629Z,3.83
2023-08-16T10:38:12.406Z,3.95
2023-08-16T10:43:15.627Z,4.28
2023-08-16T10:48:19.257Z,4.28
2023-08-16T10:53:24.021Z,4.13
2023-08-16T10:58:26.528Z,4.28
2023-08-16T11:03:32.978Z,4.05
2023-08-16T11:08:34.837Z,4.72
2023-08-16T11:13:36.630Z,4.25
2023-08-16T11:18:43.096Z,4.05
2023-08-16T11:23:45.833Z,3.70
2023-08-16T11:28:47.734Z,3.75
2023-08-16T11:33:49.506Z,3.47
2023-08-16T11:38:51.318Z,3.80
2023-08-16T11:44:02.312Z,3.78
2023-08-16T11:49:04.219Z,3.72
2023-08-16T11:54:07.572Z,4.55
2023-08-16T11:59:09.274Z,3.83
2023-08-16T12:04:11.181Z,3.17
2023-08-16T12:09:17.068Z,4.00
2023-08-16T12:14:18.887Z,3.78
2023-08-16T12:19:21.225Z,4.47
2023-08-16T12:24:23.173Z,3.70
2023-08-16T12:29:24.902Z,3.60
2023-08-16T12:34:26.603Z,3.15
2023-08-16T12:39:31.220Z,3.20
2023-08-16T12:44:34.746Z,3.80
2023-08-16T12:49:36.668Z,3.88
2023-08-16T12:54:38.433Z,3.60
2023-08-16T12:59:51.385Z,3.47
2023-08-16T13:10:02.230Z,2.78
2023-08-16T13:15:07.251Z,3.00
2023-08-16T13:20:23.792Z,2.80
2023-08-16T13:35:49.975Z,2.42
2023-08-16T13:40:53.760Z,3.20
2023-08-16T13:45:55.842Z,3.17
2023-08-16T13:50:57.646Z,2.65
2023-08-16T13:56:02.125Z,2.70
2023-08-16T14:01:04.149Z,2.30
2023-08-16T14:06:06.063Z,2.28
2023-08-16T14:11:08.169Z,2.20
2023-08-16T14:16:10.273Z,1.98
2023-08-16T14:21:12.102Z,2.63
2023-08-16T14:26:21.309Z,2.47
2023-08-16T14:31:23.484Z,2.60
2023-08-16T14:36:25.268Z,2.83
2023-08-16T14:41:26.994Z,3.40
2023-08-16T14:46:28.866Z,2.75
2023-08-16T14:51:33.613Z,2.42
2023-08-16T14:56:35.503Z,2.90
2023-08-16T15:01:37.437Z,2.95
2023-08-16T15:06:39.394Z,2.67
2023-08-16T15:11:41.325Z,3.03
2023-08-16T15:16:43.043Z,3.00
2023-08-16T15:21:47.095Z,2.83
2023-08-16T15:26:50.535Z,2.92
2023-08-16T15:31:52.347Z,3.50
2023-08-16T15:36:54.140Z,3.10
2023-08-16T15:41:55.987Z,2.97
2023-08-16T15:46:58.234Z,2.60
2023-08-16T15:51:59.964Z,3.22
2023-08-16T15:57:01.875Z,3.03
2023-08-16T16:02:04.106Z,3.33
2023-08-16T16:07:06.386Z,3.17
2023-08-16T16:12:08.402Z,2.90
2023-08-16T16:17:25.815Z,3.03
2023-08-16T16:22:28.058Z,2.88
2023-08-16T16:27:29.891Z,3.22
2023-08-16T16:32:31.642Z,3.55
2023-08-16T16:37:33.416Z,3.33
2023-08-16T16:42:35.455Z,3.10
2023-08-16T16:47:37.240Z,2.92
2023-08-16T16:52:39.044Z,3.22
2023-08-16T16:57:40.735Z,3.72
2023-08-16T17:02:42.437Z,3.50
2023-08-16T17:07:44.321Z,3.15
2023-08-16T17:12:46.095Z,4.68
2023-08-16T17:17:48.413Z,3.50
2023-08-16T17:22:50.185Z,4.50
2023-08-16T17:27:52.060Z,4.13
2023-08-16T17:32:54.652Z,2.47
2023-08-16T17:37:56.379Z,2.20
2023-08-16T17:42:58.184Z,2.22
2023-08-16T17:47:59.888Z,1.60
2023-08-16T17:53:01.628Z,2.45
2023-08-16T17:58:03.553Z,1.73
2023-08-16T18:03:07.047Z,1.40
2023-08-16T18:08:11.065Z,1.33
2023-08-16T18:13:13.068Z,1.30
2023-08-16T18:18:14.938Z,1.33
2023-08-16T18:23:22.348Z,1.08
2023-08-16T18:28:24.700Z,1.40
2023-08-16T18:33:26.458Z,2.63
2023-08-16T18:38:28.219Z,1.85
2023-08-16T18:43:29.997Z,1.45
2023-08-16T18:48:31.818Z,1.65
2023-08-16T18:53:34.162Z,2.53
2023-08-16T18:58:35.874Z,1.90
2023-08-16T19:03:37.580Z,1.65
2023-08-16T19:08:39.351Z,2.70
2023-08-16T19:13:41.500Z,1.50
2023-08-16T19:18:44.975Z,1.92
2023-08-16T19:23:46.830Z,3.20
2023-08-16T19:28:48.559Z,2.70
2023-08-16T19:33:51.519Z,1.80
2023-08-16T19:38:54.411Z,1.98
2023-08-16T19:43:58.940Z,2.05
2023-08-16T19:49:03.573Z,1.70
2023-08-16T19:54:05.729Z,2.35
2023-08-16T19:59:07.457Z,1.95
2023-08-16T20:04:09.220Z,2.45
2023-08-16T20:09:10.977Z,1.92
2023-08-16T20:14:12.688Z,2.80
2023-08-16T20:19:14.595Z,2.65
2023-08-16T20:24:16.629Z,2.13
2023-08-16T20:29:19.564Z,2.05
2023-08-16T20:34:21.848Z,1.98
2023-08-16T20:39:23.673Z,2.53
2023-08-16T20:44:25.461Z,2.33
2023-08-16T20:49:27.267Z,2.08
2023-08-16T20:54:29.027Z,2.00
2023-08-16T20:59:30.789Z,2.60
2023-08-16T21:04:32.517Z,2.20
2023-08-16T21:09:34.673Z,2.10
2023-08-16T21:14:36.448Z,1.90
2023-08-16T21:19:38.526Z,2.05
2023-08-16T21:24:40.289Z,2.13
2023-08-16T21:29:42.250Z,2.08
2023-08-16T21:34:44.062Z,2.78
2023-08-16T21:39:47.212Z,2.25
2023-08-16T21:44:48.979Z,3.35
2023-08-16T21:49:50.991Z,2.50
2023-08-16T21:54:52.688Z,2.42
2023-08-16T21:59:54.520Z,2.20
2023-08-16T22:04:56.665Z,2.58
2023-08-16T22:09:58.389Z,2.20
2023-08-16T22:15:00.198Z,3.35
2023-08-16T22:20:02.256Z,2.92
2023-08-16T22:25:04.672Z,3.30
2023-08-16T22:30:07.237Z,2.70
2023-08-16T22:35:09.625Z,2.92
2023-08-16T22:40:11.805Z,2.78
2023-08-16T22:45:13.520Z,2.40
2023-08-16T22:50:15.639Z,2.85
2023-08-16T22:55:17.506Z,3.00
2023-08-16T23:00:19.469Z,3.53
2023-08-16T23:05:21.212Z,2.90
2023-08-16T23:10:22.985Z,2.55
2023-08-16T23:15:25.553Z,2.70
2023-08-16T23:20:27.261Z,2.63
2023-08-16T23:25:29.128Z,3.28
2023-08-16T23:30:31.520Z,2.80
2023-08-16T23:35:33.370Z,2.75
2023-08-16T23:40:35.178Z,3.00
2023-08-16T23:45:36.964Z,3.10
2023-08-16T23:50:38.968Z,3.03
2023-08-16T23:55:40.716Z,3.22
